sensor_id;sensor_type;location;lat;lon;timestamp;P1;durP1;ratioP1;P2;durP2;ratioP2
10491;SDS011;5293;51.464;-2.566;2023-09-18T00:00:45;24.57;;;14.27;;
10491;SDS011;5293;51.464;-2.566;2023-09-18T00:03:15;23.53;;;15.63;;
10491;SDS011;5293;51.464;-2.566;2023-09-18T00:05:42;24.53;;;15.10;;
10491;SDS011;5293;51.464;-2.566;2023-09-18T00:08:08;28.30;;;15.50;;
10491;SDS011;5293;51.464;-2.566;2023-09-18T00:10:34;24.43;;;15.27;;
10491;SDS011;5293;51.464;-2.566;2023-09-18T00:13:00;22.03;;;14.87;;
10491;SDS011;5293;51.464;-2.566;2023-09-18T00:15:26;22.77;;;14.93;;
10491;SDS011;5293;51.464;-2.566;2023-09-18T00:17:52;20.97;;;14.63;;
10491;SDS011;5293;51.464;-2.566;2023-09-18T00:20:17;18.27;;;14.77;;
10491;SDS011;5293;51.464;-2.566;2023-09-18T00:22:43;21.87;;;14.80;;
10491;SDS011;5293;51.464;-2.566;2023-09-18T00:25:09;22.87;;;14.97;;
10491;SDS011;5293;51.464;-2.566;2023-09-18T00:27:35;20.77;;;15.20;;
10491;SDS011;5293;51.464;-2.566;2023-09-18T00:30:03;24.33;;;14.90;;
10491;SDS011;5293;51.464;-2.566;2023-09-18T00:32:29;21.47;;;15.60;;
10491;SDS011;5293;51.464;-2.566;2023-09-18T00:34:55;20.80;;;14.97;;
10491;SDS011;5293;51.464;-2.566;2023-09-18T00:37:21;25.20;;;16.07;;
10491;SDS011;5293;51.464;-2.566;2023-09-18T00:39:47;26.13;;;15.40;;
10491;SDS011;5293;51.464;-2.566;2023-09-18T00:42:14;25.10;;;15.40;;
10491;SDS011;5293;51.464;-2.566;2023-09-18T00:44:45;24.97;;;15.87;;
10491;SDS011;5293;51.464;-2.566;2023-09-18T00:47:11;24.23;;;16.00;;
10491;SDS011;5293;51.464;-2.566;2023-09-18T00:49:38;19.20;;;15.00;;
10491;SDS011;5293;51.464;-2.566;2023-09-18T00:52:07;24.97;;;15.73;;
10491;SDS011;5293;51.464;-2.566;2023-09-18T00:54:34;23.00;;;14.87;;
10491;SDS011;5293;51.464;-2.566;2023-09-18T00:57:01;22.63;;;14.60;;
10491;SDS011;5293;51.464;-2.566;2023-09-18T00:59:28;25.60;;;15.47;;
10491;SDS011;5293;51.464;-2.566;2023-09-18T01:01:54;22.60;;;15.77;;
10491;SDS011;5293;51.464;-2.566;2023-09-18T01:04:20;21.03;;;15.23;;
10491;SDS011;5293;51.464;-2.566;2023-09-18T01:06:46;25.87;;;16.27;;
10491;SDS011;5293;51.464;-2.566;2023-09-18T01:09:14;22.40;;;16.00;;
10491;SDS011;5293;51.464;-2.566;2023-09-18T01:14:47;26.27;;;16.43;;
10491;SDS011;5293;51.464;-2.566;2023-09-18T01:17:34;28.87;;;16.70;;
10491;SDS011;5293;51.464;-2.566;2023-09-18T01:20:05;23.17;;;15.83;;
10491;SDS011;5293;51.464;-2.566;2023-09-18T01:22:35;22.17;;;16.43;;
10491;SDS011;5293;51.464;-2.566;2023-09-18T01:25:01;22.77;;;16.23;;
10491;SDS011;5293;51.464;-2.566;2023-09-18T01:27:27;22.80;;;16.93;;
10491;SDS011;5293;51.464;-2.566;2023-09-18T01:29:53;21.33;;;15.47;;
10491;SDS011;5293;51.464;-2.566;2023-09-18T01:32:19;21.77;;;16.10;;
10491;SDS011;5293;51.464;-2.566;2023-09-18T01:34:47;24.43;;;16.13;;
10491;SDS011;5293;51.464;-2.566;2023-09-18T01:37:15;24.90;;;15.67;;
10491;SDS011;5293;51.464;-2.566;2023-09-18T01:39:43;27.80;;;16.50;;
10491;SDS011;5293;51.464;-2.566;2023-09-18T01:42:13;25.97;;;17.60;;
10491;SDS011;5293;51.464;-2.566;2023-09-18T01:44:38;24.87;;;16.97;;
10491;SDS011;5293;51.464;-2.566;2023-09-18T01:47:06;21.43;;;16.13;;
10491;SDS011;5293;51.464;-2.566;2023-09-18T01:49:36;22.37;;;15.37;;
10491;SDS011;5293;51.464;-2.566;2023-09-18T01:52:04;21.43;;;16.60;;
10491;SDS011;5293;51.464;-2.566;2023-09-18T01:54:31;20.30;;;14.60;;
10491;SDS011;5293;51.464;-2.566;2023-09-18T01:56:57;25.50;;;15.90;;
10491;SDS011;5293;51.464;-2.566;2023-09-18T01:59:23;23.67;;;15.77;;
10491;SDS011;5293;51.464;-2.566;2023-09-18T02:01:50;22.97;;;15.73;;
10491;SDS011;5293;51.464;-2.566;2023-09-18T02:04:17;17.60;;;13.70;;
10491;SDS011;5293;51.464;-2.566;2023-09-18T02:06:43;21.17;;;14.47;;
10491;SDS011;5293;51.464;-2.566;2023-09-18T02:09:09;19.37;;;13.43;;
10491;SDS011;5293;51.464;-2.566;2023-09-18T02:11:36;22.47;;;13.97;;
10491;SDS011;5293;51.464;-2.566;2023-09-18T02:14:06;20.90;;;14.87;;
10491;SDS011;5293;51.464;-2.566;2023-09-18T02:16:35;23.67;;;13.97;;
10491;SDS011;5293;51.464;-2.566;2023-09-18T02:19:10;21.70;;;14.23;;
10491;SDS011;5293;51.464;-2.566;2023-09-18T02:21:37;21.53;;;14.33;;
10491;SDS011;5293;51.464;-2.566;2023-09-18T02:24:03;21.70;;;14.07;;
10491;SDS011;5293;51.464;-2.566;2023-09-18T02:26:29;24.47;;;14.87;;
10491;SDS011;5293;51.464;-2.566;2023-09-18T02:28:57;24.63;;;16.10;;
10491;SDS011;5293;51.464;-2.566;2023-09-18T02:31:24;22.27;;;14.63;;
10491;SDS011;5293;51.464;-2.566;2023-09-18T02:33:49;21.67;;;14.60;;
10491;SDS011;5293;51.464;-2.566;2023-09-18T02:36:15;21.17;;;15.23;;
10491;SDS011;5293;51.464;-2.566;2023-09-18T02:38:41;23.33;;;14.63;;
10491;SDS011;5293;51.464;-2.566;2023-09-18T02:41:08;22.90;;;15.03;;
10491;SDS011;5293;51.464;-2.566;2023-09-18T02:43:34;18.83;;;13.87;;
10491;SDS011;5293;51.464;-2.566;2023-09-18T02:46:00;22.53;;;14.20;;
10491;SDS011;5293;51.464;-2.566;2023-09-18T02:48:26;28.47;;;14.57;;
10491;SDS011;5293;51.464;-2.566;2023-09-18T02:50:51;21.43;;;14.60;;
10491;SDS011;5293;51.464;-2.566;2023-09-18T02:53:21;18.67;;;14.27;;
10491;SDS011;5293;51.464;-2.566;2023-09-18T02:55:49;19.60;;;13.80;;
10491;SDS011;5293;51.464;-2.566;2023-09-18T02:58:16;20.10;;;13.20;;
10491;SDS011;5293;51.464;-2.566;2023-09-18T03:00:43;20.77;;;12.67;;
10491;SDS011;5293;51.464;-2.566;2023-09-18T03:03:10;18.83;;;13.30;;
10491;SDS011;5293;51.464;-2.566;2023-09-18T03:05:36;16.17;;;12.00;;
10491;SDS011;5293;51.464;-2.566;2023-09-18T03:08:03;13.70;;;11.27;;
10491;SDS011;5293;51.464;-2.566;2023-09-18T03:10:32;17.37;;;10.03;;
10491;SDS011;5293;51.464;-2.566;2023-09-18T03:12:59;17.97;;;10.10;;
10491;SDS011;5293;51.464;-2.566;2023-09-18T03:15:25;15.27;;;9.17;;
10491;SDS011;5293;51.464;-2.566;2023-09-18T03:17:51;13.63;;;8.97;;
10491;SDS011;5293;51.464;-2.566;2023-09-18T03:20:17;13.13;;;8.83;;
10491;SDS011;5293;51.464;-2.566;2023-09-18T03:22:42;11.97;;;8.70;;
10491;SDS011;5293;51.464;-2.566;2023-09-18T03:25:08;12.53;;;8.93;;
10491;SDS011;5293;51.464;-2.566;2023-09-18T03:27:35;15.63;;;10.07;;
10491;SDS011;5293;51.464;-2.566;2023-09-18T03:30:00;10.83;;;8.60;;
10491;SDS011;5293;51.464;-2.566;2023-09-18T03:32:26;10.80;;;8.60;;
10491;SDS011;5293;51.464;-2.566;2023-09-18T03:34:52;15.20;;;9.40;;
10491;SDS011;5293;51.464;-2.566;2023-09-18T03:37:18;12.93;;;9.17;;
10491;SDS011;5293;51.464;-2.566;2023-09-18T03:39:44;11.73;;;9.40;;
10491;SDS011;5293;51.464;-2.566;2023-09-18T03:42:10;13.07;;;10.00;;
10491;SDS011;5293;51.464;-2.566;2023-09-18T03:44:36;13.30;;;8.43;;
10491;SDS011;5293;51.464;-2.566;2023-09-18T03:47:01;12.60;;;9.63;;
10491;SDS011;5293;51.464;-2.566;2023-09-18T03:49:29;10.53;;;9.07;;
10491;SDS011;5293;51.464;-2.566;2023-09-18T03:51:55;10.97;;;9.33;;
10491;SDS011;5293;51.464;-2.566;2023-09-18T03:54:20;14.17;;;8.70;;
10491;SDS011;5293;51.464;-2.566;2023-09-18T03:56:46;10.47;;;8.23;;
10491;SDS011;5293;51.464;-2.566;2023-09-18T03:59:12;9.83;;;8.33;;
10491;SDS011;5293;51.464;-2.566;2023-09-18T04:01:38;10.77;;;8.93;;
10491;SDS011;5293;51.464;-2.566;2023-09-18T04:04:04;10.43;;;8.90;;
10491;SDS011;5293;51.464;-2.566;2023-09-18T04:06:37;11.40;;;8.73;;
10491;SDS011;5293;51.464;-2.566;2023-09-18T04:09:06;9.70;;;8.50;;
10491;SDS011;5293;51.464;-2.566;2023-09-18T04:11:32;13.63;;;8.27;;
10491;SDS011;5293;51.464;-2.566;2023-09-18T04:13:58;10.90;;;8.30;;
10491;SDS011;5293;51.464;-2.566;2023-09-18T04:16:25;10.97;;;8.20;;
10491;SDS011;5293;51.464;-2.566;2023-09-18T04:18:52;9.53;;;7.27;;
10491;SDS011;5293;51.464;-2.566;2023-09-18T04:21:18;10.70;;;7.60;;
10491;SDS011;5293;51.464;-2.566;2023-09-18T04:23:46;10.53;;;6.47;;
10491;SDS011;5293;51.464;-2.566;2023-09-18T04:26:12;12.73;;;6.43;;
10491;SDS011;5293;51.464;-2.566;2023-09-18T04:28:41;6.90;;;5.43;;
10491;SDS011;5293;51.464;-2.566;2023-09-18T04:31:07;7.13;;;4.93;;
10491;SDS011;5293;51.464;-2.566;2023-09-18T04:33:32;6.33;;;4.90;;
10491;SDS011;5293;51.464;-2.566;2023-09-18T04:35:58;7.43;;;5.07;;
10491;SDS011;5293;51.464;-2.566;2023-09-18T04:38:24;8.20;;;4.57;;
10491;SDS011;5293;51.464;-2.566;2023-09-18T04:40:56;6.43;;;5.20;;
10491;SDS011;5293;51.464;-2.566;2023-09-18T04:43:23;7.10;;;5.27;;
10491;SDS011;5293;51.464;-2.566;2023-09-18T04:45:50;9.53;;;5.73;;
10491;SDS011;5293;51.464;-2.566;2023-09-18T04:48:15;8.00;;;6.53;;
10491;SDS011;5293;51.464;-2.566;2023-09-18T04:50:42;8.03;;;6.23;;
10491;SDS011;5293;51.464;-2.566;2023-09-18T04:53:08;8.33;;;7.10;;
10491;SDS011;5293;51.464;-2.566;2023-09-18T04:55:34;9.93;;;7.70;;
10491;SDS011;5293;51.464;-2.566;2023-09-18T04:57:59;8.30;;;6.83;;
10491;SDS011;5293;51.464;-2.566;2023-09-18T05:00:25;8.40;;;6.87;;
10491;SDS011;5293;51.464;-2.566;2023-09-18T05:02:51;7.93;;;6.90;;
10491;SDS011;5293;51.464;-2.566;2023-09-18T05:05:17;12.50;;;8.03;;
10491;SDS011;5293;51.464;-2.566;2023-09-18T05:07:44;12.20;;;8.17;;
10491;SDS011;5293;51.464;-2.566;2023-09-18T05:10:09;11.30;;;7.93;;
10491;SDS011;5293;51.464;-2.566;2023-09-18T05:12:37;10.27;;;8.27;;
10491;SDS011;5293;51.464;-2.566;2023-09-18T05:15:04;9.10;;;7.90;;
10491;SDS011;5293;51.464;-2.566;2023-09-18T05:17:40;14.70;;;8.63;;
10491;SDS011;5293;51.464;-2.566;2023-09-18T05:20:11;9.23;;;7.97;;
10491;SDS011;5293;51.464;-2.566;2023-09-18T05:22:41;11.70;;;8.27;;
10491;SDS011;5293;51.464;-2.566;2023-09-18T05:25:08;10.47;;;8.17;;
10491;SDS011;5293;51.464;-2.566;2023-09-18T05:27:35;12.90;;;8.47;;
10491;SDS011;5293;51.464;-2.566;2023-09-18T05:30:09;11.03;;;7.87;;
10491;SDS011;5293;51.464;-2.566;2023-09-18T05:32:36;11.37;;;7.90;;
10491;SDS011;5293;51.464;-2.566;2023-09-18T05:35:02;10.33;;;7.30;;
10491;SDS011;5293;51.464;-2.566;2023-09-18T05:37:31;11.47;;;8.43;;
10491;SDS011;5293;51.464;-2.566;2023-09-18T05:39:57;14.57;;;8.90;;
10491;SDS011;5293;51.464;-2.566;2023-09-18T05:42:23;10.20;;;8.00;;
10491;SDS011;5293;51.464;-2.566;2023-09-18T05:44:49;11.83;;;7.80;;
10491;SDS011;5293;51.464;-2.566;2023-09-18T05:47:14;9.97;;;8.00;;
10491;SDS011;5293;51.464;-2.566;2023-09-18T05:49:40;10.57;;;7.60;;
10491;SDS011;5293;51.464;-2.566;2023-09-18T05:52:06;8.63;;;7.40;;
10491;SDS011;5293;51.464;-2.566;2023-09-18T05:54:31;13.13;;;8.10;;
10491;SDS011;5293;51.464;-2.566;2023-09-18T05:56:57;10.00;;;7.77;;
10491;SDS011;5293;51.464;-2.566;2023-09-18T05:59:22;8.97;;;7.63;;
10491;SDS011;5293;51.464;-2.566;2023-09-18T06:01:48;11.57;;;8.00;;
10491;SDS011;5293;51.464;-2.566;2023-09-18T06:04:14;10.50;;;7.70;;
10491;SDS011;5293;51.464;-2.566;2023-09-18T06:06:41;8.80;;;7.90;;
10491;SDS011;5293;51.464;-2.566;2023-09-18T06:09:07;10.80;;;7.87;;
10491;SDS011;5293;51.464;-2.566;2023-09-18T06:11:33;10.60;;;7.80;;
10491;SDS011;5293;51.464;-2.566;2023-09-18T06:13:59;9.37;;;7.43;;
10491;SDS011;5293;51.464;-2.566;2023-09-18T06:16:24;9.67;;;7.60;;
10491;SDS011;5293;51.464;-2.566;2023-09-18T06:18:50;8.53;;;7.63;;
10491;SDS011;5293;51.464;-2.566;2023-09-18T06:21:16;8.10;;;6.73;;
10491;SDS011;5293;51.464;-2.566;2023-09-18T06:23:42;10.37;;;6.67;;
10491;SDS011;5293;51.464;-2.566;2023-09-18T06:26:07;12.27;;;7.87;;
10491;SDS011;5293;51.464;-2.566;2023-09-18T06:28:33;9.40;;;7.07;;
10491;SDS011;5293;51.464;-2.566;2023-09-18T06:30:59;8.63;;;7.00;;
10491;SDS011;5293;51.464;-2.566;2023-09-18T06:33:24;9.87;;;6.83;;
10491;SDS011;5293;51.464;-2.566;2023-09-18T06:35:50;10.87;;;7.33;;
10491;SDS011;5293;51.464;-2.566;2023-09-18T06:38:17;13.53;;;7.60;;
10491;SDS011;5293;51.464;-2.566;2023-09-18T06:40:42;10.90;;;7.00;;
10491;SDS011;5293;51.464;-2.566;2023-09-18T06:43:08;7.80;;;6.77;;
10491;SDS011;5293;51.464;-2.566;2023-09-18T06:45:34;13.40;;;7.23;;
10491;SDS011;5293;51.464;-2.566;2023-09-18T06:48:02;9.13;;;7.03;;
10491;SDS011;5293;51.464;-2.566;2023-09-18T06:50:28;8.60;;;7.30;;
10491;SDS011;5293;51.464;-2.566;2023-09-18T06:52:54;10.93;;;7.33;;
10491;SDS011;5293;51.464;-2.566;2023-09-18T06:55:19;12.63;;;7.40;;
10491;SDS011;5293;51.464;-2.566;2023-09-18T06:57:45;12.57;;;6.27;;
10491;SDS011;5293;51.464;-2.566;2023-09-18T07:00:12;6.97;;;6.17;;
10491;SDS011;5293;51.464;-2.566;2023-09-18T07:02:40;7.70;;;6.07;;
10491;SDS011;5293;51.464;-2.566;2023-09-18T07:05:06;11.53;;;7.00;;
10491;SDS011;5293;51.464;-2.566;2023-09-18T07:07:31;12.13;;;5.80;;
10491;SDS011;5293;51.464;-2.566;2023-09-18T07:09:57;9.63;;;6.43;;
10491;SDS011;5293;51.464;-2.566;2023-09-18T07:12:23;7.83;;;5.50;;
10491;SDS011;5293;51.464;-2.566;2023-09-18T07:14:49;7.20;;;4.93;;
10491;SDS011;5293;51.464;-2.566;2023-09-18T07:17:14;8.03;;;5.07;;
10491;SDS011;5293;51.464;-2.566;2023-09-18T07:19:41;11.90;;;4.07;;
10491;SDS011;5293;51.464;-2.566;2023-09-18T07:22:07;5.53;;;3.50;;
10491;SDS011;5293;51.464;-2.566;2023-09-18T07:24:32;5.37;;;3.93;;
10491;SDS011;5293;51.464;-2.566;2023-09-18T07:26:58;6.73;;;3.43;;
10491;SDS011;5293;51.464;-2.566;2023-09-18T07:29:24;7.50;;;3.23;;
10491;SDS011;5293;51.464;-2.566;2023-09-18T07:31:52;6.20;;;3.73;;
10491;SDS011;5293;51.464;-2.566;2023-09-18T07:34:18;6.23;;;3.73;;
10491;SDS011;5293;51.464;-2.566;2023-09-18T07:36:44;4.37;;;2.83;;
10491;SDS011;5293;51.464;-2.566;2023-09-18T07:39:09;3.47;;;2.80;;
10491;SDS011;5293;51.464;-2.566;2023-09-18T07:41:36;6.43;;;3.53;;
10491;SDS011;5293;51.464;-2.566;2023-09-18T07:44:03;4.20;;;2.87;;
10491;SDS011;5293;51.464;-2.566;2023-09-18T07:46:29;6.20;;;3.37;;
10491;SDS011;5293;51.464;-2.566;2023-09-18T07:48:54;6.77;;;3.50;;
10491;SDS011;5293;51.464;-2.566;2023-09-18T07:51:20;8.37;;;3.47;;
10491;SDS011;5293;51.464;-2.566;2023-09-18T07:53:46;4.80;;;3.23;;
10491;SDS011;5293;51.464;-2.566;2023-09-18T07:56:12;5.77;;;3.47;;
10491;SDS011;5293;51.464;-2.566;2023-09-18T07:58:38;11.30;;;3.73;;
10491;SDS011;5293;51.464;-2.566;2023-09-18T08:01:06;4.43;;;3.53;;
10491;SDS011;5293;51.464;-2.566;2023-09-18T08:03:34;4.53;;;3.30;;
10491;SDS011;5293;51.464;-2.566;2023-09-18T08:06:00;8.00;;;3.53;;
10491;SDS011;5293;51.464;-2.566;2023-09-18T08:08:25;6.20;;;4.03;;
10491;SDS011;5293;51.464;-2.566;2023-09-18T08:10:51;6.07;;;4.83;;
10491;SDS011;5293;51.464;-2.566;2023-09-18T08:13:18;7.20;;;4.00;;
10491;SDS011;5293;51.464;-2.566;2023-09-18T08:15:49;5.00;;;4.03;;
10491;SDS011;5293;51.464;-2.566;2023-09-18T08:18:15;7.93;;;4.77;;
10491;SDS011;5293;51.464;-2.566;2023-09-18T08:20:44;9.67;;;5.43;;
10491;SDS011;5293;51.464;-2.566;2023-09-18T08:23:10;10.23;;;4.43;;
10491;SDS011;5293;51.464;-2.566;2023-09-18T08:25:36;10.00;;;4.60;;
10491;SDS011;5293;51.464;-2.566;2023-09-18T08:28:02;7.57;;;4.50;;
10491;SDS011;5293;51.464;-2.566;2023-09-18T08:30:29;9.07;;;4.53;;
10491;SDS011;5293;51.464;-2.566;2023-09-18T08:32:55;7.27;;;4.40;;
10491;SDS011;5293;51.464;-2.566;2023-09-18T08:35:20;7.03;;;3.77;;
10491;SDS011;5293;51.464;-2.566;2023-09-18T08:37:47;5.40;;;3.17;;
10491;SDS011;5293;51.464;-2.566;2023-09-18T08:40:13;4.30;;;2.90;;
10491;SDS011;5293;51.464;-2.566;2023-09-18T08:42:41;5.03;;;3.30;;
10491;SDS011;5293;51.464;-2.566;2023-09-18T08:48:02;6.17;;;3.77;;
10491;SDS011;5293;51.464;-2.566;2023-09-18T08:50:29;5.40;;;3.70;;
10491;SDS011;5293;51.464;-2.566;2023-09-18T08:52:56;7.20;;;3.20;;
10491;SDS011;5293;51.464;-2.566;2023-09-18T08:55:22;5.97;;;3.27;;
10491;SDS011;5293;51.464;-2.566;2023-09-18T08:57:49;4.53;;;2.53;;
10491;SDS011;5293;51.464;-2.566;2023-09-18T09:00:15;5.07;;;2.30;;
10491;SDS011;5293;51.464;-2.566;2023-09-18T09:02:45;6.77;;;2.40;;
10491;SDS011;5293;51.464;-2.566;2023-09-18T09:05:13;4.93;;;2.60;;
10491;SDS011;5293;51.464;-2.566;2023-09-18T09:07:39;3.97;;;2.47;;
10491;SDS011;5293;51.464;-2.566;2023-09-18T09:10:05;3.63;;;2.60;;
10491;SDS011;5293;51.464;-2.566;2023-09-18T09:12:48;2.87;;;2.00;;
10491;SDS011;5293;51.464;-2.566;2023-09-18T09:15:25;4.47;;;2.70;;
10491;SDS011;5293;51.464;-2.566;2023-09-18T09:18:01;4.83;;;2.40;;
10491;SDS011;5293;51.464;-2.566;2023-09-18T09:20:28;4.00;;;2.00;;
10491;SDS011;5293;51.464;-2.566;2023-09-18T09:22:55;2.97;;;2.17;;
10491;SDS011;5293;51.464;-2.566;2023-09-18T09:25:29;3.10;;;2.10;;
10491;SDS011;5293;51.464;-2.566;2023-09-18T09:27:57;2.90;;;1.70;;
10491;SDS011;5293;51.464;-2.566;2023-09-18T09:30:24;3.10;;;2.00;;
10491;SDS011;5293;51.464;-2.566;2023-09-18T09:32:52;5.13;;;1.87;;
10491;SDS011;5293;51.464;-2.566;2023-09-18T09:35:26;3.63;;;1.40;;
10491;SDS011;5293;51.464;-2.566;2023-09-18T09:37:54;2.80;;;1.50;;
10491;SDS011;5293;51.464;-2.566;2023-09-18T09:40:23;4.00;;;1.57;;
10491;SDS011;5293;51.464;-2.566;2023-09-18T09:42:53;1.77;;;1.17;;
10491;SDS011;5293;51.464;-2.566;2023-09-18T09:45:25;2.47;;;1.00;;
10491;SDS011;5293;51.464;-2.566;2023-09-18T09:47:55;3.37;;;1.17;;
10491;SDS011;5293;51.464;-2.566;2023-09-18T09:50:22;2.47;;;1.33;;
10491;SDS011;5293;51.464;-2.566;2023-09-18T09:52:49;2.40;;;1.47;;
10491;SDS011;5293;51.464;-2.566;2023-09-18T09:55:19;3.23;;;1.50;;
10491;SDS011;5293;51.464;-2.566;2023-09-18T09:57:48;2.30;;;1.40;;
10491;SDS011;5293;51.464;-2.566;2023-09-18T10:00:16;3.07;;;1.40;;
10491;SDS011;5293;51.464;-2.566;2023-09-18T10:02:56;5.00;;;1.70;;
10491;SDS011;5293;51.464;-2.566;2023-09-18T10:05:27;3.40;;;1.30;;
10491;SDS011;5293;51.464;-2.566;2023-09-18T10:07:58;10.20;;;1.70;;
10491;SDS011;5293;51.464;-2.566;2023-09-18T10:10:34;2.90;;;1.50;;
10491;SDS011;5293;51.464;-2.566;2023-09-18T10:13:07;4.63;;;1.30;;
10491;SDS011;5293;51.464;-2.566;2023-09-18T10:15:45;2.60;;;1.40;;
10491;SDS011;5293;51.464;-2.566;2023-09-18T10:20:47;4.73;;;2.57;;
10491;SDS011;5293;51.464;-2.566;2023-09-18T10:26:30;2.97;;;1.67;;
10491;SDS011;5293;51.464;-2.566;2023-09-18T10:29:03;3.20;;;1.60;;
10491;SDS011;5293;51.464;-2.566;2023-09-18T10:31:30;3.23;;;1.30;;
10491;SDS011;5293;51.464;-2.566;2023-09-18T10:34:00;2.37;;;1.20;;
10491;SDS011;5293;51.464;-2.566;2023-09-18T10:36:28;3.40;;;1.37;;
10491;SDS011;5293;51.464;-2.566;2023-09-18T10:38:55;1.50;;;1.40;;
10491;SDS011;5293;51.464;-2.566;2023-09-18T10:41:23;1.50;;;1.00;;
10491;SDS011;5293;51.464;-2.566;2023-09-18T10:43:52;1.00;;;0.90;;
10491;SDS011;5293;51.464;-2.566;2023-09-18T10:46:19;2.17;;;1.37;;
10491;SDS011;5293;51.464;-2.566;2023-09-18T10:48:45;2.20;;;1.60;;
10491;SDS011;5293;51.464;-2.566;2023-09-18T10:51:12;3.20;;;1.90;;
10491;SDS011;5293;51.464;-2.566;2023-09-18T10:53:39;2.80;;;2.50;;
10491;SDS011;5293;51.464;-2.566;2023-09-18T10:56:05;3.07;;;2.83;;
10491;SDS011;5293;51.464;-2.566;2023-09-18T10:58:32;2.43;;;2.23;;
10491;SDS011;5293;51.464;-2.566;2023-09-18T11:01:01;3.13;;;2.83;;
10491;SDS011;5293;51.464;-2.566;2023-09-18T11:03:27;3.13;;;2.80;;
10491;SDS011;5293;51.464;-2.566;2023-09-18T11:06:03;4.23;;;2.60;;
10491;SDS011;5293;51.464;-2.566;2023-09-18T11:08:31;5.43;;;3.20;;
10491;SDS011;5293;51.464;-2.566;2023-09-18T11:18:51;3.63;;;2.43;;
10491;SDS011;5293;51.464;-2.566;2023-09-18T11:21:23;2.97;;;2.00;;
10491;SDS011;5293;51.464;-2.566;2023-09-18T11:23:57;5.63;;;1.83;;
10491;SDS011;5293;51.464;-2.566;2023-09-18T11:26:23;2.60;;;2.40;;
10491;SDS011;5293;51.464;-2.566;2023-09-18T11:28:53;4.77;;;2.10;;
10491;SDS011;5293;51.464;-2.566;2023-09-18T11:31:19;4.43;;;2.10;;
10491;SDS011;5293;51.464;-2.566;2023-09-18T11:33:47;2.63;;;1.80;;
10491;SDS011;5293;51.464;-2.566;2023-09-18T11:38:51;3.07;;;2.13;;
10491;SDS011;5293;51.464;-2.566;2023-09-18T11:44:40;3.87;;;2.03;;
10491;SDS011;5293;51.464;-2.566;2023-09-18T11:46:47;1.90;;;1.40;;
10491;SDS011;5293;51.464;-2.566;2023-09-18T11:49:23;2.30;;;1.60;;
10491;SDS011;5293;51.464;-2.566;2023-09-18T11:51:52;3.73;;;1.60;;
10491;SDS011;5293;51.464;-2.566;2023-09-18T11:54:19;2.77;;;1.33;;
10491;SDS011;5293;51.464;-2.566;2023-09-18T11:56:46;1.13;;;1.03;;
10491;SDS011;5293;51.464;-2.566;2023-09-18T11:59:12;3.87;;;1.23;;
10491;SDS011;5293;51.464;-2.566;2023-09-18T12:01:38;1.20;;;1.10;;
10491;SDS011;5293;51.464;-2.566;2023-09-18T12:04:11;2.33;;;1.30;;
10491;SDS011;5293;51.464;-2.566;2023-09-18T12:06:39;3.10;;;1.17;;
10491;SDS011;5293;51.464;-2.566;2023-09-18T12:09:06;2.93;;;1.30;;
10491;SDS011;5293;51.464;-2.566;2023-09-18T12:11:33;1.97;;;1.20;;
10491;SDS011;5293;51.464;-2.566;2023-09-18T12:14:06;1.40;;;1.00;;
10491;SDS011;5293;51.464;-2.566;2023-09-18T12:16:39;1.30;;;1.20;;
10491;SDS011;5293;51.464;-2.566;2023-09-18T12:19:04;2.20;;;1.40;;
10491;SDS011;5293;51.464;-2.566;2023-09-18T12:21:31;1.60;;;0.93;;
10491;SDS011;5293;51.464;-2.566;2023-09-18T12:23:58;4.10;;;1.40;;
10491;SDS011;5293;51.464;-2.566;2023-09-18T12:26:24;2.80;;;1.27;;
10491;SDS011;5293;51.464;-2.566;2023-09-18T12:28:51;4.43;;;1.30;;
10491;SDS011;5293;51.464;-2.566;2023-09-18T12:31:16;4.57;;;1.33;;
10491;SDS011;5293;51.464;-2.566;2023-09-18T12:33:43;2.67;;;1.20;;
10491;SDS011;5293;51.464;-2.566;2023-09-18T12:36:09;14.53;;;8.60;;
10491;SDS011;5293;51.464;-2.566;2023-09-18T12:38:36;5.23;;;2.53;;
10491;SDS011;5293;51.464;-2.566;2023-09-18T12:41:02;2.53;;;1.73;;
10491;SDS011;5293;51.464;-2.566;2023-09-18T12:43:35;2.93;;;1.10;;
10491;SDS011;5293;51.464;-2.566;2023-09-18T12:46:04;7.23;;;2.30;;
10491;SDS011;5293;51.464;-2.566;2023-09-18T12:48:30;11.23;;;1.90;;
10491;SDS011;5293;51.464;-2.566;2023-09-18T12:51:01;2.57;;;1.80;;
10491;SDS011;5293;51.464;-2.566;2023-09-18T12:53:28;2.30;;;1.57;;
10491;SDS011;5293;51.464;-2.566;2023-09-18T12:55:54;4.53;;;1.70;;
10491;SDS011;5293;51.464;-2.566;2023-09-18T12:58:29;1.70;;;1.57;;
10491;SDS011;5293;51.464;-2.566;2023-09-18T13:00:54;2.30;;;1.43;;
10491;SDS011;5293;51.464;-2.566;2023-09-18T13:03:20;5.43;;;1.47;;
10491;SDS011;5293;51.464;-2.566;2023-09-18T13:05:46;2.83;;;1.20;;
10491;SDS011;5293;51.464;-2.566;2023-09-18T13:08:13;2.63;;;1.07;;
10491;SDS011;5293;51.464;-2.566;2023-09-18T13:10:45;1.10;;;1.00;;
10491;SDS011;5293;51.464;-2.566;2023-09-18T13:13:18;1.87;;;0.90;;
10491;SDS011;5293;51.464;-2.566;2023-09-18T13:15:44;4.23;;;1.03;;
10491;SDS011;5293;51.464;-2.566;2023-09-18T13:18:12;0.90;;;0.90;;
10491;SDS011;5293;51.464;-2.566;2023-09-18T13:20:38;3.87;;;1.33;;
10491;SDS011;5293;51.464;-2.566;2023-09-18T13:23:05;2.00;;;0.83;;
10491;SDS011;5293;51.464;-2.566;2023-09-18T13:25:33;7.80;;;0.83;;
10491;SDS011;5293;51.464;-2.566;2023-09-18T13:28:01;2.30;;;1.20;;
10491;SDS011;5293;51.464;-2.566;2023-09-18T13:30:29;1.80;;;0.80;;
10491;SDS011;5293;51.464;-2.566;2023-09-18T13:33:09;4.67;;;1.00;;
10491;SDS011;5293;51.464;-2.566;2023-09-18T13:35:41;3.97;;;1.13;;
10491;SDS011;5293;51.464;-2.566;2023-09-18T13:38:08;2.90;;;0.83;;
10491;SDS011;5293;51.464;-2.566;2023-09-18T13:40:36;1.83;;;0.63;;
10491;SDS011;5293;51.464;-2.566;2023-09-18T13:43:02;0.60;;;0.60;;
10491;SDS011;5293;51.464;-2.566;2023-09-18T13:45:30;0.70;;;0.70;;
10491;SDS011;5293;51.464;-2.566;2023-09-18T13:47:56;0.90;;;0.70;;
10491;SDS011;5293;51.464;-2.566;2023-09-18T13:50:21;1.33;;;0.80;;
10491;SDS011;5293;51.464;-2.566;2023-09-18T13:52:47;2.93;;;0.90;;
10491;SDS011;5293;51.464;-2.566;2023-09-18T13:55:13;3.40;;;0.87;;
10491;SDS011;5293;51.464;-2.566;2023-09-18T13:57:39;3.33;;;0.90;;
10491;SDS011;5293;51.464;-2.566;2023-09-18T14:00:07;1.33;;;0.90;;
10491;SDS011;5293;51.464;-2.566;2023-09-18T14:02:37;3.27;;;0.60;;
10491;SDS011;5293;51.464;-2.566;2023-09-18T14:05:04;2.63;;;1.40;;
10491;SDS011;5293;51.464;-2.566;2023-09-18T14:07:30;7.37;;;1.17;;
10491;SDS011;5293;51.464;-2.566;2023-09-18T14:09:56;2.83;;;1.07;;
10491;SDS011;5293;51.464;-2.566;2023-09-18T14:12:23;5.43;;;1.23;;
10491;SDS011;5293;51.464;-2.566;2023-09-18T14:14:49;3.60;;;0.70;;
10491;SDS011;5293;51.464;-2.566;2023-09-18T14:17:15;5.63;;;1.47;;
10491;SDS011;5293;51.464;-2.566;2023-09-18T14:19:43;5.07;;;1.00;;
10491;SDS011;5293;51.464;-2.566;2023-09-18T14:22:09;4.20;;;1.70;;
10491;SDS011;5293;51.464;-2.566;2023-09-18T14:24:35;6.33;;;1.40;;
10491;SDS011;5293;51.464;-2.566;2023-09-18T14:27:01;4.63;;;1.70;;
10491;SDS011;5293;51.464;-2.566;2023-09-18T14:29:27;2.80;;;1.30;;
10491;SDS011;5293;51.464;-2.566;2023-09-18T14:31:53;3.33;;;1.60;;
10491;SDS011;5293;51.464;-2.566;2023-09-18T14:34:19;8.07;;;1.50;;
10491;SDS011;5293;51.464;-2.566;2023-09-18T14:36:44;3.27;;;1.50;;
10491;SDS011;5293;51.464;-2.566;2023-09-18T14:39:10;4.30;;;1.47;;
10491;SDS011;5293;51.464;-2.566;2023-09-18T14:41:37;7.80;;;1.73;;
10491;SDS011;5293;51.464;-2.566;2023-09-18T14:44:04;9.27;;;1.37;;
10491;SDS011;5293;51.464;-2.566;2023-09-18T14:46:33;4.63;;;1.67;;
10491;SDS011;5293;51.464;-2.566;2023-09-18T14:49:00;6.33;;;1.83;;
10491;SDS011;5293;51.464;-2.566;2023-09-18T14:51:26;7.83;;;2.50;;
10491;SDS011;5293;51.464;-2.566;2023-09-18T14:53:56;5.40;;;1.80;;
10491;SDS011;5293;51.464;-2.566;2023-09-18T14:56:22;6.07;;;1.90;;
10491;SDS011;5293;51.464;-2.566;2023-09-18T14:58:48;5.13;;;1.87;;
10491;SDS011;5293;51.464;-2.566;2023-09-18T15:01:15;7.50;;;1.77;;
10491;SDS011;5293;51.464;-2.566;2023-09-18T15:03:40;6.60;;;2.10;;